Time;durP1;ratioP1;P1;durP2;ratioP2;P2;SDS_P1;SDS_P2;PMS_P1;PMS_P2;Temp;Humidity;BMP_temperature;BMP_pressure;BME280_temperature;BME280_humidity;BME280_pressure;Samples;Min_cycle;Max_cycle;Signal;HPM_P1;HPM_P2
2021/06/22 00:00:14;;;;;;;8.23;4.90;;;15.70;99.90;;;;;;5075342;28;20021;-90
2021/06/22 00:02:39;;;;;;;6.88;4.80;;;15.70;99.90;;;;;;5075538;28;20029;-90
2021/06/22 00:05:07;;;;;;;6.70;4.63;;;15.70;99.90;;;;;;5078198;28;20477;-89
2021/06/22 00:07:33;;;;;;;7.45;4.53;;;15.70;99.90;;;;;;5077825;28;20074;-90
2021/06/22 00:09:59;;;;;;;8.75;4.72;;;15.70;99.90;;;;;;5077960;28;20025;-91
2021/06/22 00:12:24;;;;;;;7.32;4.05;;;15.70;99.90;;;;;;5077592;28;20115;-90
2021/06/22 00:14:51;;;;;;;5.65;4.30;;;15.70;99.90;;;;;;5078748;28;20050;-91
2021/06/22 00:17:17;;;;;;;6.30;4.00;;;15.70;99.90;;;;;;5085924;28;20054;-91
2021/06/22 00:19:45;;;;;;;8.07;4.15;;;15.70;99.90;;;;;;5095143;28;20017;-91
2021/06/22 00:22:11;;;;;;;11.77;4.38;;;15.70;99.90;;;;;;5091447;28;20036;-91
2021/06/22 00:24:36;;;;;;;5.63;4.45;;;15.70;99.90;;;;;;5095984;28;20036;-92
2021/06/22 00:27:02;;;;;;;9.38;4.32;;;15.80;99.90;;;;;;5096779;28;20062;-91
2021/06/22 00:29:28;;;;;;;6.38;4.05;;;15.70;99.90;;;;;;5086932;28;20028;-91
2021/06/22 00:31:54;;;;;;;7.25;4.28;;;15.70;99.90;;;;;;5076895;28;20029;-91
2021/06/22 00:34:19;;;;;;;7.20;4.55;;;15.60;99.90;;;;;;5077501;28;20465;-90
2021/06/22 00:36:45;;;;;;;6.93;4.18;;;15.60;99.90;;;;;;5079750;28;20027;-90
2021/06/22 00:39:12;;;;;;;9.35;4.38;;;15.50;99.90;;;;;;5077233;28;20032;-90
2021/06/22 00:41:38;;;;;;;8.32;4.57;;;15.70;99.90;;;;;;5077450;28;20024;-90
2021/06/22 00:44:05;;;;;;;7.40;4.70;;;15.60;99.90;;;;;;5077114;28;20104;-91
2021/06/22 00:46:30;;;;;;;6.32;4.57;;;15.60;99.90;;;;;;5076963;28;20040;-91
2021/06/22 00:48:56;;;;;;;7.63;4.63;;;15.50;99.90;;;;;;5077796;28;20591;-91
2021/06/22 00:51:22;;;;;;;6.13;4.40;;;15.50;99.90;;;;;;5078198;28;20024;-90
2021/06/22 00:53:49;;;;;;;7.82;4.75;;;15.50;99.90;;;;;;5078116;28;20029;-91
2021/06/22 00:56:15;;;;;;;8.90;5.00;;;15.40;99.90;;;;;;5076922;28;20138;-90
2021/06/22 00:58:42;;;;;;;9.75;4.68;;;15.50;99.90;;;;;;5078304;28;20025;-92
2021/06/22 01:01:11;;;;;;;9.10;5.07;;;15.40;99.90;;;;;;5079597;28;20029;-91
2021/06/22 01:03:47;;;;;;;8.77;5.03;;;15.40;99.90;;;;;;5077052;28;20017;-92
2021/06/22 01:06:13;;;;;;;8.35;4.90;;;15.30;99.90;;;;;;5077830;28;20028;-91
2021/06/22 01:08:40;;;;;;;11.77;5.50;;;15.30;99.90;;;;;;5077843;28;20017;-91
2021/06/22 01:11:07;;;;;;;8.45;5.05;;;15.30;99.90;;;;;;5076704;28;20074;-91
2021/06/22 01:13:33;;;;;;;12.25;5.38;;;15.40;99.90;;;;;;5077627;28;20370;-91
2021/06/22 01:15:58;;;;;;;9.48;5.72;;;15.30;99.90;;;;;;5076068;28;20111;-91
2021/06/22 01:18:24;;;;;;;8.70;5.45;;;15.30;99.90;;;;;;5076459;28;20020;-91
2021/06/22 01:20:58;;;;;;;12.38;5.72;;;15.30;99.90;;;;;;5076668;28;20028;-91
2021/06/22 01:23:23;;;;;;;7.65;6.30;;;15.30;99.90;;;;;;5077560;28;20021;-91
2021/06/22 01:25:49;;;;;;;10.90;6.68;;;15.30;99.90;;;;;;5076501;28;20025;-91
2021/06/22 01:28:15;;;;;;;10.68;6.45;;;15.30;99.90;;;;;;5075959;28;20040;-91
2021/06/22 01:30:41;;;;;;;12.77;6.55;;;15.30;99.90;;;;;;5076020;28;20197;-91
2021/06/22 01:33:06;;;;;;;9.98;6.63;;;15.20;99.90;;;;;;5076305;28;20179;-91
2021/06/22 01:35:33;;;;;;;13.93;7.65;;;15.20;99.90;;;;;;5076107;28;20016;-91
2021/06/22 01:38:01;;;;;;;10.38;6.88;;;15.20;99.90;;;;;;5076239;28;20119;-91
2021/06/22 01:40:27;;;;;;;9.02;7.10;;;15.30;99.90;;;;;;5076097;28;20424;-91
2021/06/22 01:43:00;;;;;;;11.88;6.90;;;15.30;99.90;;;;;;5077014;28;20024;-91
2021/06/22 01:45:27;;;;;;;11.68;7.15;;;15.40;99.90;;;;;;5076112;28;20028;-91
2021/06/22 01:47:53;;;;;;;12.45;7.05;;;15.30;99.90;;;;;;5076597;28;20024;-90
2021/06/22 01:50:20;;;;;;;12.55;7.22;;;15.30;99.90;;;;;;5077618;28;20032;-90
2021/06/22 01:52:49;;;;;;;10.63;6.78;;;15.20;99.90;;;;;;5075419;28;20108;-91
2021/06/22 01:58:01;;;;;;;13.77;6.85;;;15.10;99.90;;;;;;5077605;28;20024;-91
2021/06/22 02:00:26;;;;;;;13.27;6.35;;;15.10;99.90;;;;;;5076458;28;20024;-91
2021/06/22 02:02:54;;;;;;;9.73;6.32;;;15.10;99.90;;;;;;5076045;28;20494;-91
2021/06/22 02:05:23;;;;;;;11.15;6.65;;;15.10;99.90;;;;;;5074941;28;20033;-91
2021/06/22 02:07:52;;;;;;;9.13;6.18;;;15.00;99.90;;;;;;5078495;28;20722;-92
2021/06/22 02:10:18;;;;;;;10.55;6.30;;;15.00;99.90;;;;;;5076240;28;20025;-91
2021/06/22 02:12:45;;;;;;;10.20;5.95;;;15.00;99.90;;;;;;5077699;28;20032;-91
2021/06/22 02:15:14;;;;;;;8.15;5.53;;;15.00;99.90;;;;;;5077680;28;20452;-91
2021/06/22 02:17:43;;;;;;;9.57;5.75;;;14.90;99.90;;;;;;5076622;28;20029;-92
2021/06/22 02:20:09;;;;;;;13.27;6.03;;;14.90;99.90;;;;;;5074859;28;20044;-91
2021/06/22 02:22:37;;;;;;;8.75;5.95;;;14.90;99.90;;;;;;5075475;28;20116;-92
2021/06/22 02:25:05;;;;;;;12.00;6.00;;;14.90;99.90;;;;;;5076948;28;20029;-91
2021/06/22 02:27:32;;;;;;;12.27;5.97;;;14.90;99.90;;;;;;5075673;28;20443;-91
2021/06/22 02:29:58;;;;;;;7.82;5.20;;;14.90;99.90;;;;;;5075396;28;20062;-92
2021/06/22 02:32:25;;;;;;;8.50;5.35;;;14.90;99.90;;;;;;5076325;28;20025;-91
2021/06/22 02:34:51;;;;;;;10.50;5.70;;;14.90;99.90;;;;;;5076739;28;20028;-91
2021/06/22 02:37:21;;;;;;;12.32;6.57;;;14.90;99.90;;;;;;5077576;28;20071;-91
2021/06/22 02:39:50;;;;;;;7.85;6.03;;;14.80;99.90;;;;;;5077910;28;20036;-91
2021/06/22 02:42:19;;;;;;;12.25;5.75;;;14.80;99.90;;;;;;5077331;28;20047;-92
2021/06/22 02:44:51;;;;;;;8.07;5.63;;;14.80;99.90;;;;;;5079911;28;20104;-92
2021/06/22 02:47:28;;;;;;;10.70;5.38;;;14.70;99.90;;;;;;5077494;28;20043;-91
2021/06/22 02:49:58;;;;;;;7.55;4.95;;;14.60;99.90;;;;;;5076372;28;20048;-92
2021/06/22 02:52:29;;;;;;;8.95;5.18;;;14.70;99.90;;;;;;5075975;28;20052;-92
2021/06/22 02:54:59;;;;;;;7.75;4.82;;;14.70;99.90;;;;;;5074876;28;20050;-92
2021/06/22 02:57:28;;;;;;;10.90;5.53;;;14.70;99.90;;;;;;5077331;28;20028;-91
2021/06/22 02:59:54;;;;;;;9.38;5.25;;;14.70;99.90;;;;;;5075768;28;20031;-92
2021/06/22 03:02:19;;;;;;;12.02;5.15;;;14.70;99.90;;;;;;5074749;28;20036;-91
2021/06/22 03:04:45;;;;;;;13.55;5.45;;;14.70;99.90;;;;;;5075613;28;20029;-91
2021/06/22 03:07:11;;;;;;;8.02;5.00;;;14.70;99.90;;;;;;5075790;28;20029;-91
2021/06/22 03:09:37;;;;;;;10.85;5.30;;;14.70;99.90;;;;;;5077181;28;20024;-91
2021/06/22 03:12:04;;;;;;;11.02;5.45;;;14.70;99.90;;;;;;5075736;28;20388;-91
2021/06/22 03:14:32;;;;;;;11.68;5.63;;;14.70;99.90;;;;;;5076072;28;20570;-92
2021/06/22 03:16:58;;;;;;;11.35;6.00;;;14.70;99.90;;;;;;5076629;28;20035;-91
2021/06/22 03:19:24;;;;;;;9.20;5.65;;;14.70;99.90;;;;;;5075031;28;20388;-92
2021/06/22 03:21:51;;;;;;;13.30;5.95;;;14.70;99.90;;;;;;5075121;28;20047;-91
2021/06/22 03:24:19;;;;;;;10.45;5.80;;;14.70;99.90;;;;;;5075506;28;20031;-91
2021/06/22 03:26:47;;;;;;;8.25;5.05;;;14.70;99.90;;;;;;5075592;28;20047;-91
2021/06/22 03:29:19;;;;;;;13.55;5.72;;;14.60;99.90;;;;;;5077279;28;20040;-92
2021/06/22 03:31:45;;;;;;;10.05;5.78;;;14.60;99.90;;;;;;5075100;28;20013;-91
2021/06/22 03:34:13;;;;;;;11.48;5.93;;;14.60;99.90;;;;;;5075184;28;20149;-91
2021/06/22 03:36:40;;;;;;;9.77;5.60;;;14.60;99.90;;;;;;5074174;28;20017;-91
2021/06/22 03:39:09;;;;;;;12.32;5.95;;;14.60;99.90;;;;;;5077211;28;20488;-91
2021/06/22 03:41:35;;;;;;;10.63;5.68;;;14.60;99.90;;;;;;5080199;28;20114;-90
2021/06/22 03:44:02;;;;;;;11.85;5.63;;;14.70;99.90;;;;;;5078989;28;20346;-89
2021/06/22 03:46:28;;;;;;;13.30;6.47;;;14.60;99.90;;;;;;5079165;28;20024;-90
2021/06/22 03:48:54;;;;;;;11.20;5.70;;;14.60;99.90;;;;;;5079008;28;20408;-90
2021/06/22 03:51:20;;;;;;;15.20;5.90;;;14.60;99.90;;;;;;5080578;28;20443;-91
2021/06/22 03:53:48;;;;;;;10.68;5.72;;;14.60;99.90;;;;;;5081835;28;20464;-91
2021/06/22 03:56:14;;;;;;;10.73;5.80;;;14.40;99.90;;;;;;5079546;28;20024;-91
2021/06/22 03:58:43;;;;;;;14.15;6.07;;;14.40;99.90;;;;;;5079998;28;20400;-90
2021/06/22 04:01:13;;;;;;;13.18;6.03;;;14.40;99.90;;;;;;5081424;28;20040;-91
2021/06/22 04:03:43;;;;;;;18.50;5.55;;;14.40;99.90;;;;;;5080932;28;20498;-91
2021/06/22 04:06:14;;;;;;;9.25;5.90;;;14.40;99.90;;;;;;5080457;28;20036;-91
2021/06/22 04:08:50;;;;;;;17.00;6.15;;;14.40;99.90;;;;;;5082911;28;20028;-91
2021/06/22 04:11:22;;;;;;;18.48;6.85;;;14.40;99.90;;;;;;5079437;28;20043;-91
2021/06/22 04:14:17;;;;;;;10.57;6.20;;;14.40;99.90;;;;;;5082271;28;20105;-91
2021/06/22 04:16:52;;;;;;;15.20;6.57;;;14.40;99.90;;;;;;5075887;28;20036;-91
2021/06/22 04:19:34;;;;;;;13.60;6.47;;;14.30;99.90;;;;;;5078878;28;20039;-92
2021/06/22 04:22:15;;;;;;;12.93;6.43;;;14.30;99.90;;;;;;5079968;28;20477;-93
2021/06/22 04:24:55;;;;;;;11.07;7.20;;;14.30;99.90;;;;;;5080571;28;20037;-92
2021/06/22 04:27:26;;;;;;;14.18;8.10;;;14.30;99.90;;;;;;5077352;28;20028;-92
2021/06/22 04:29:57;;;;;;;18.45;7.30;;;14.30;99.90;;;;;;5079233;28;20059;-91
2021/06/22 04:32:36;;;;;;;12.48;7.70;;;14.20;99.90;;;;;;5083137;28;20111;-92
2021/06/22 04:35:14;;;;;;;13.63;7.70;;;14.10;99.90;;;;;;5080123;28;20151;-92
2021/06/22 04:37:46;;;;;;;18.13;8.20;;;14.20;99.90;;;;;;5080336;28;20111;-91
2021/06/22 04:40:34;;;;;;;16.48;8.02;;;14.20;99.90;;;;;;5080022;28;20037;-92
2021/06/22 04:43:05;;;;;;;14.48;8.02;;;14.10;99.90;;;;;;5081691;28;20488;-91
2021/06/22 04:45:40;;;;;;;17.17;7.97;;;14.00;99.90;;;;;;5080870;28;20067;-92
2021/06/22 04:48:30;;;;;;;18.63;8.37;;;13.90;99.90;;;;;;5080551;28;20055;-91
2021/06/22 04:51:04;;;;;;;17.58;8.77;;;13.90;99.90;;;;;;5080636;28;20029;-93
2021/06/22 04:53:30;;;;;;;16.95;8.73;;;14.00;99.90;;;;;;5078246;28;20036;-92
2021/06/22 04:55:56;;;;;;;16.65;9.35;;;13.90;99.90;;;;;;5078067;28;20024;-93
2021/06/22 04:58:21;;;;;;;20.10;9.60;;;13.80;99.90;;;;;;5077264;28;20032;-92
2021/06/22 05:00:47;;;;;;;17.45;9.43;;;13.80;99.90;;;;;;5077659;28;20456;-92
2021/06/22 05:03:13;;;;;;;17.45;9.40;;;13.70;99.90;;;;;;5077607;28;20059;-92
2021/06/22 05:05:38;;;;;;;21.80;10.02;;;13.70;99.90;;;;;;5077183;28;20027;-92
2021/06/22 05:08:05;;;;;;;18.95;9.82;;;13.70;99.90;;;;;;5078776;28;20025;-92
2021/06/22 05:10:30;;;;;;;24.13;10.75;;;13.70;99.90;;;;;;5078261;28;20377;-92
2021/06/22 05:12:56;;;;;;;18.45;9.80;;;13.50;99.90;;;;;;5078543;28;20516;-91
2021/06/22 05:15:21;;;;;;;19.88;9.57;;;13.60;99.90;;;;;;5077911;28;20032;-92
2021/06/22 05:17:47;;;;;;;20.70;9.98;;;13.60;99.90;;;;;;5077229;28;20043;-92
2021/06/22 05:20:13;;;;;;;21.73;9.80;;;13.60;99.90;;;;;;5076973;28;20489;-93
2021/06/22 05:22:39;;;;;;;22.10;9.85;;;13.50;99.90;;;;;;5075881;28;20028;-92
2021/06/22 05:25:06;;;;;;;17.88;9.07;;;13.50;99.90;;;;;;5076519;28;20039;-92
2021/06/22 05:27:32;;;;;;;22.00;9.70;;;13.50;99.90;;;;;;5076225;28;20049;-92
2021/06/22 05:29:57;;;;;;;18.15;9.10;;;13.60;99.90;;;;;;5077265;28;20112;-92
2021/06/22 05:32:23;;;;;;;23.65;9.55;;;13.50;99.90;;;;;;5078301;28;20040;-92
2021/06/22 05:34:49;;;;;;;22.40;9.38;;;13.50;99.90;;;;;;5078172;28;20423;-92
2021/06/22 05:37:14;;;;;;;18.98;10.07;;;13.50;99.90;;;;;;5077447;28;20074;-92
2021/06/22 05:39:40;;;;;;;16.77;9.52;;;13.60;99.90;;;;;;5078358;28;20082;-93
2021/06/22 05:42:06;;;;;;;16.13;9.20;;;13.60;99.90;;;;;;5080441;28;20028;-92
2021/06/22 05:44:31;;;;;;;17.58;8.75;;;13.60;99.90;;;;;;5076684;28;20430;-91
2021/06/22 05:46:57;;;;;;;19.98;8.88;;;13.50;99.90;;;;;;5077283;28;20036;-92
2021/06/22 05:49:29;;;;;;;12.68;7.85;;;13.60;99.90;;;;;;5078517;28;20024;-93
2021/06/22 05:52:02;;;;;;;15.60;8.60;;;13.50;99.90;;;;;;5074388;28;20415;-92
2021/06/22 05:54:31;;;;;;;14.55;8.43;;;13.50;99.90;;;;;;5078728;28;20028;-93
2021/06/22 05:56:59;;;;;;;12.80;8.05;;;13.50;99.90;;;;;;5062913;28;20037;-92
2021/06/22 05:59:25;;;;;;;16.00;8.20;;;13.50;99.90;;;;;;5076987;28;20012;-92
2021/06/22 06:01:54;;;;;;;15.43;7.88;;;13.60;99.90;;;;;;5077029;28;20062;-92
2021/06/22 06:04:20;;;;;;;16.98;8.07;;;13.60;99.90;;;;;;5079789;28;20116;-91
2021/06/22 06:06:46;;;;;;;16.75;8.20;;;13.70;99.90;;;;;;5071910;28;20070;-91
2021/06/22 06:09:11;;;;;;;16.25;8.07;;;13.70;99.90;;;;;;5053621;28;20417;-91
2021/06/22 06:11:38;;;;;;;15.63;7.60;;;13.70;99.90;;;;;;5065622;28;20052;-92
2021/06/22 06:14:04;;;;;;;18.10;8.07;;;13.80;99.90;;;;;;5056001;28;20029;-89
2021/06/22 06:16:29;;;;;;;17.83;7.95;;;13.80;99.90;;;;;;5061232;28;20020;-91
2021/06/22 06:18:56;;;;;;;12.52;7.93;;;13.80;99.90;;;;;;5080090;28;20020;-88
2021/06/22 06:21:24;;;;;;;16.15;7.55;;;13.80;99.90;;;;;;5069709;28;20116;-88
2021/06/22 06:23:50;;;;;;;20.02;8.90;;;13.60;99.90;;;;;;5075284;28;20397;-89
2021/06/22 06:26:18;;;;;;;14.18;8.70;;;13.70;99.90;;;;;;5065175;28;20041;-90
2021/06/22 06:28:48;;;;;;;21.45;8.55;;;13.80;99.90;;;;;;5046032;28;20044;-87
2021/06/22 06:31:14;;;;;;;18.17;8.40;;;13.90;99.90;;;;;;5060259;28;20488;-88
2021/06/22 06:33:46;;;;;;;16.58;7.78;;;13.90;99.90;;;;;;5064292;28;20021;-90
2021/06/22 06:36:12;;;;;;;19.25;8.32;;;13.80;99.90;;;;;;5073162;28;20512;-89
2021/06/22 06:38:40;;;;;;;14.90;8.15;;;13.70;99.90;;;;;;5074937;28;20028;-88
2021/06/22 06:41:06;;;;;;;17.20;8.90;;;13.70;99.90;;;;;;5074785;28;20366;-89
2021/06/22 06:43:32;;;;;;;13.65;7.90;;;13.70;99.90;;;;;;5072343;28;20065;-90
2021/06/22 06:45:57;;;;;;;15.07;8.27;;;13.70;99.90;;;;;;5067050;28;20086;-90
2021/06/22 06:48:27;;;;;;;17.55;8.48;;;13.70;99.90;;;;;;5062831;28;20473;-90
2021/06/22 06:50:57;;;;;;;13.10;8.32;;;13.80;99.90;;;;;;5043942;28;20389;-90
2021/06/22 06:53:28;;;;;;;16.38;9.25;;;13.80;99.90;;;;;;5072137;28;20078;-90
2021/06/22 06:55:54;;;;;;;16.20;9.45;;;13.70;99.90;;;;;;5069906;28;20089;-90
2021/06/22 06:58:20;;;;;;;21.58;9.77;;;13.80;99.90;;;;;;5070089;28;20529;-89
2021/06/22 07:00:46;;;;;;;16.23;9.40;;;13.90;99.90;;;;;;5049269;28;20028;-90
2021/06/22 07:03:12;;;;;;;14.75;9.15;;;13.80;99.90;;;;;;5071041;28;20043;-88
2021/06/22 07:05:38;;;;;;;20.35;9.50;;;13.80;99.90;;;;;;5070583;28;20028;-89
2021/06/22 07:08:04;;;;;;;21.20;10.05;;;13.90;99.90;;;;;;5069099;28;20400;-90
2021/06/22 07:10:34;;;;;;;21.60;9.68;;;13.90;99.90;;;;;;5062277;28;20137;-89
2021/06/22 07:13:11;;;;;;;17.42;10.65;;;13.90;99.90;;;;;;5076296;28;20024;-89
2021/06/22 07:15:37;;;;;;;17.83;10.40;;;13.90;99.90;;;;;;5065505;28;20507;-93
2021/06/22 07:18:03;;;;;;;16.00;10.27;;;14.00;99.90;;;;;;5071596;28;20032;-91
2021/06/22 07:20:32;;;;;;;18.92;10.45;;;13.90;99.90;;;;;;5074151;28;20031;-91
2021/06/22 07:22:58;;;;;;;17.42;11.23;;;14.00;99.90;;;;;;5072313;28;20020;-89
2021/06/22 07:25:30;;;;;;;18.85;11.30;;;14.10;99.90;;;;;;5070806;28;20540;-90
2021/06/22 07:27:56;;;;;;;;;;;14.00;99.90;;;;;;5074870;28;20064;-90
2021/06/22 07:30:23;;;;;;;16.80;10.63;;;14.10;99.90;;;;;;5068421;28;19916;-91
2021/06/22 07:32:53;;;;;;;20.75;11.95;;;14.10;99.90;;;;;;5067926;28;20060;-91
2021/06/22 07:35:20;;;;;;;18.42;12.52;;;14.10;99.90;;;;;;5069445;28;20017;-90
2021/06/22 07:37:46;;;;;;;16.10;11.10;;;14.00;99.90;;;;;;5073569;28;20088;-92
2021/06/22 07:40:13;;;;;;;19.75;12.60;;;14.10;99.90;;;;;;5083322;28;20096;-91
2021/06/22 07:42:38;;;;;;;22.73;12.45;;;14.00;99.90;;;;;;5082934;28;20029;-90
2021/06/22 07:45:06;;;;;;;21.27;13.00;;;14.00;99.90;;;;;;5065813;28;20086;-89
2021/06/22 07:47:33;;;;;;;21.75;12.05;;;14.10;99.90;;;;;;5076386;28;20044;-92
2021/06/22 07:50:01;;;;;;;22.15;13.35;;;14.10;99.90;;;;;;5073227;28;20043;-92
2021/06/22 07:52:27;;;;;;;18.35;12.27;;;14.10;99.90;;;;;;5070524;28;20035;-91
2021/06/22 07:54:53;;;;;;;24.42;12.93;;;14.10;99.90;;;;;;5068072;28;20023;-90
2021/06/22 07:57:20;;;;;;;19.92;12.93;;;14.10;99.90;;;;;;5061381;28;20478;-92
2021/06/22 07:59:50;;;;;;;17.85;11.77;;;14.20;99.90;;;;;;5070784;28;20444;-92
2021/06/22 08:02:16;;;;;;;20.20;12.18;;;14.20;99.90;;;;;;5061430;28;20040;-90
2021/06/22 08:04:47;;;;;;;15.52;11.43;;;14.20;99.90;;;;;;5072840;28;20028;-91
2021/06/22 08:07:14;;;;;;;17.17;11.98;;;14.30;99.90;;;;;;5066138;28;20146;-90
2021/06/22 08:09:40;;;;;;;19.45;12.40;;;14.30;99.90;;;;;;5066849;28;20021;-93
2021/06/22 08:12:09;;;;;;;20.80;11.43;;;14.30;99.90;;;;;;5072775;28;20017;-90
2021/06/22 08:14:34;;;;;;;21.00;12.60;;;14.20;99.90;;;;;;5072011;28;20054;-90
2021/06/22 08:17:00;;;;;;;19.90;13.13;;;14.30;99.90;;;;;;5072962;28;20022;-89
2021/06/22 08:19:25;;;;;;;21.17;12.18;;;14.50;99.90;;;;;;5068418;28;20024;-86
2021/06/22 08:21:51;;;;;;;22.30;12.23;;;14.50;99.90;;;;;;5071805;28;20040;-89
2021/06/22 08:24:17;;;;;;;23.70;13.05;;;14.50;99.90;;;;;;5072300;28;20035;-89
2021/06/22 08:26:42;;;;;;;19.83;11.65;;;14.60;99.90;;;;;;5078608;28;20091;-90
2021/06/22 08:29:08;;;;;;;14.93;10.05;;;14.70;99.90;;;;;;5078666;28;20103;-89
2021/06/22 08:31:34;;;;;;;17.55;10.60;;;14.70;99.90;;;;;;5069006;28;20056;-89
2021/06/22 08:33:59;;;;;;;15.15;8.98;;;14.80;99.90;;;;;;5074648;28;20116;-90
2021/06/22 08:36:25;;;;;;;13.85;8.75;;;14.90;99.90;;;;;;5069161;28;20070;-89
2021/06/22 08:38:50;;;;;;;16.92;8.77;;;14.90;99.90;;;;;;5074848;28;20602;-89
2021/06/22 08:41:17;;;;;;;17.90;8.88;;;15.10;99.90;;;;;;5065219;28;20044;-90
2021/06/22 08:43:45;;;;;;;15.65;8.60;;;15.10;99.90;;;;;;5063144;28;20025;-89
2021/06/22 08:46:11;;;;;;;17.13;8.27;;;15.10;99.90;;;;;;5059747;28;20104;-89
2021/06/22 08:48:36;;;;;;;13.25;8.27;;;15.40;99.90;;;;;;5071402;28;20079;-89
2021/06/22 08:51:02;;;;;;;12.88;7.35;;;15.70;99.90;;;;;;5070054;28;20032;-88
2021/06/22 08:53:28;;;;;;;16.52;6.95;;;15.90;99.90;;;;;;5076998;28;20764;-89
2021/06/22 08:55:54;;;;;;;11.45;7.28;;;15.90;99.90;;;;;;5077504;28;20016;-90
2021/06/22 08:58:20;;;;;;;15.35;7.57;;;16.00;99.90;;;;;;5069158;28;20043;-90
2021/06/22 09:00:51;;;;;;;10.95;6.82;;;15.90;99.90;;;;;;5069888;28;20028;-89
2021/06/22 09:03:26;;;;;;;12.23;6.47;;;16.00;99.90;;;;;;5074072;28;20024;-91
2021/06/22 09:06:00;;;;;;;11.82;6.57;;;16.00;99.90;;;;;;5069158;28;20478;-89
2021/06/22 09:08:30;;;;;;;13.25;6.68;;;16.10;99.90;;;;;;5073621;28;20108;-90
2021/06/22 09:11:13;;;;;;;13.98;7.10;;;16.20;99.90;;;;;;5063579;28;20025;-88
2021/06/22 09:13:41;;;;;;;14.95;6.93;;;16.30;99.90;;;;;;5062286;28;20074;-88
2021/06/22 09:16:10;;;;;;;17.52;6.82;;;16.40;99.90;;;;;;5065490;28;20065;-91
2021/06/22 09:18:42;;;;;;;15.10;6.50;;;16.50;99.90;;;;;;5069835;28;20020;-90
2021/06/22 09:21:15;;;;;;;;;;;16.40;99.90;;;;;;5069168;28;20021;-90
2021/06/22 09:23:43;;;;;;;10.27;5.88;;;16.30;99.90;;;;;;5066804;28;19904;-90
2021/06/22 09:26:14;;;;;;;13.57;6.50;;;16.10;99.90;;;;;;5064897;28;20607;-88
2021/06/22 09:28:40;;;;;;;17.48;6.55;;;16.00;99.90;;;;;;5063111;28;20041;-88
2021/06/22 09:31:12;;;;;;;8.95;6.10;;;16.10;99.90;;;;;;5074549;28;20051;-88
2021/06/22 09:33:50;;;;;;;11.30;6.10;;;16.30;99.90;;;;;;5068861;28;20385;-89
2021/06/22 09:36:27;;;;;;;13.93;5.78;;;16.50;99.90;;;;;;5080104;28;20808;-89
2021/06/22 09:38:58;;;;;;;10.15;6.05;;;16.50;99.90;;;;;;5074438;28;20017;-89
2021/06/22 09:41:33;;;;;;;14.98;6.18;;;16.50;99.90;;;;;;5067356;28;20052;-88
2021/06/22 09:44:07;;;;;;;9.68;5.80;;;16.60;99.90;;;;;;5072731;28;20021;-87
2021/06/22 09:46:40;;;;;;;9.93;5.75;;;16.80;99.90;;;;;;5065320;28;20027;-87
2021/06/22 09:49:08;;;;;;;9.32;6.30;;;16.80;99.90;;;;;;5073171;28;20107;-85
2021/06/22 09:51:50;;;;;;;11.75;7.22;;;16.80;99.90;;;;;;5076323;28;20089;-87
2021/06/22 09:54:30;;;;;;;14.35;7.43;;;16.90;99.90;;;;;;5071101;28;20723;-89
2021/06/22 09:57:06;;;;;;;14.40;6.65;;;16.80;99.90;;;;;;5061821;28;20025;-88
2021/06/22 10:00:03;;;;;;;11.63;8.00;;;16.80;99.90;;;;;;5068331;28;20082;-87
2021/06/22 10:02:29;;;;;;;12.43;7.57;;;16.80;99.90;;;;;;5061275;28;20029;-87
2021/06/22 10:04:59;;;;;;;12.07;8.18;;;16.60;99.90;;;;;;5073769;28;20109;-88
2021/06/22 10:07:28;;;;;;;14.90;8.48;;;16.50;99.90;;;;;;5062399;28;20166;-87
2021/06/22 10:09:58;;;;;;;13.52;8.10;;;16.50;99.90;;;;;;5050221;28;20021;-87
2021/06/22 10:12:29;;;;;;;14.20;9.45;;;16.60;99.90;;;;;;5068207;28;20024;-87
2021/06/22 10:14:59;;;;;;;16.42;9.23;;;16.70;99.90;;;;;;5064710;28;20021;-86
2021/06/22 10:17:26;;;;;;;12.98;9.82;;;16.70;99.90;;;;;;5070353;28;20017;-88
2021/06/22 10:19:55;;;;;;;13.85;10.30;;;17.00;99.90;;;;;;5073212;28;20036;-89
2021/06/22 10:22:25;;;;;;;16.27;9.90;;;17.20;99.90;;;;;;5072396;28;21713;-93
2021/06/22 10:24:51;;;;;;;18.10;10.00;;;17.20;99.90;;;;;;5065705;28;20032;-91
2021/06/22 10:27:21;;;;;;;15.88;9.85;;;17.10;99.90;;;;;;5058241;28;20046;-90
2021/06/22 10:29:50;;;;;;;15.20;9.75;;;17.00;99.90;;;;;;5072138;28;20032;-93
2021/06/22 10:32:17;;;;;;;16.60;11.20;;;16.90;99.90;;;;;;5071462;28;20043;-92
2021/06/22 10:34:48;;;;;;;18.38;12.40;;;16.70;99.90;;;;;;5049202;28;20490;-91
2021/06/22 10:37:32;;;;;;;18.75;12.75;;;16.60;99.90;;;;;;5064901;28;20032;-90
2021/06/22 10:40:05;;;;;;;22.48;14.77;;;16.60;99.90;;;;;;5074038;28;20028;-88
2021/06/22 10:42:43;;;;;;;22.77;15.15;;;16.50;99.90;;;;;;5069869;28;20111;-92
2021/06/22 10:45:11;;;;;;;21.35;13.45;;;16.50;99.90;;;;;;5068374;28;20524;-90
2021/06/22 10:47:41;;;;;;;26.52;15.57;;;16.70;99.90;;;;;;5054652;28;20047;-84
2021/06/22 10:50:31;;;;;;;22.83;14.93;;;16.80;99.90;;;;;;5069465;28;20020;-90
2021/06/22 10:53:01;;;;;;;26.13;14.90;;;16.80;99.90;;;;;;5069123;28;20111;-88
2021/06/22 10:55:27;;;;;;;23.63;15.38;;;16.90;99.90;;;;;;5075113;28;20385;-91
2021/06/22 10:58:02;;;;;;;23.83;14.88;;;16.90;99.90;;;;;;5075483;28;20033;-89
2021/06/22 11:00:37;;;;;;;26.75;15.65;;;16.80;99.90;;;;;;5076130;28;20404;-84
2021/06/22 11:03:10;;;;;;;21.23;15.55;;;16.80;99.90;;;;;;5076144;28;20025;-87
2021/06/22 11:05:40;;;;;;;;;;;16.90;99.90;;;;;;5075900;28;20389;-89
2021/06/22 11:08:12;;;;;;;21.83;15.52;;;17.00;99.90;;;;;;5075095;28;20363;-89
2021/06/22 11:10:47;;;;;;;23.17;16.05;;;17.00;99.90;;;;;;5062092;28;20107;-88
2021/06/22 11:13:36;;;;;;;24.13;15.85;;;16.90;99.90;;;;;;5066360;28;20032;-89
2021/06/22 11:16:07;;;;;;;23.90;16.95;;;16.80;99.90;;;;;;5058428;28;20025;-90
2021/06/22 11:19:00;;;;;;;23.95;17.08;;;16.90;99.90;;;;;;5066057;28;20792;-88
2021/06/22 11:21:31;;;;;;;28.02;18.65;;;16.90;99.90;;;;;;5062083;28;20031;-87
2021/06/22 11:24:03;;;;;;;23.55;18.63;;;16.80;99.90;;;;;;5072810;28;20016;-86
2021/06/22 11:26:40;;;;;;;25.33;17.63;;;16.70;99.90;;;;;;5071587;28;20028;-87
2021/06/22 11:29:07;;;;;;;24.45;18.55;;;16.60;99.90;;;;;;5066266;28;20111;-88
2021/06/22 11:31:40;;;;;;;26.30;18.45;;;16.60;99.90;;;;;;5071461;28;20039;-88
2021/06/22 11:34:25;;;;;;;26.65;17.77;;;16.60;99.90;;;;;;5065445;28;20025;-87
2021/06/22 11:37:17;;;;;;;22.48;18.67;;;16.50;99.90;;;;;;5072767;28;20024;-88
2021/06/22 11:40:23;;;;;;;23.95;18.38;;;16.50;99.90;;;;;;5073257;28;20025;-90
2021/06/22 11:43:06;;;;;;;25.55;18.70;;;16.50;99.90;;;;;;5069445;28;20618;-87
2021/06/22 11:45:33;;;;;;;27.52;20.52;;;16.60;99.90;;;;;;5072609;28;20078;-88
2021/06/22 11:48:54;;;;;;;23.80;20.00;;;16.70;99.90;;;;;;5078273;28;20021;-94
2021/06/22 11:51:51;;;;;;;27.35;18.88;;;16.90;99.90;;;;;;5079549;28;20028;-93
2021/06/22 11:54:46;;;;;;;25.52;19.73;;;17.10;99.90;;;;;;5065450;28;20131;-89
2021/06/22 11:57:18;;;;;;;26.88;19.17;;;17.50;99.90;;;;;;5076619;28;20025;-86
2021/06/22 11:59:45;;;;;;;30.90;19.52;;;17.70;99.90;;;;;;5068971;28;20031;-92
2021/06/22 12:02:11;;;;;;;31.88;20.17;;;17.70;99.90;;;;;;5076516;28;20032;-90
2021/06/22 12:04:37;;;;;;;26.65;19.48;;;17.80;99.90;;;;;;5078670;28;20052;-90
2021/06/22 12:07:03;;;;;;;26.90;19.23;;;17.90;99.90;;;;;;5073899;28;20580;-92
2021/06/22 12:09:29;;;;;;;25.45;19.02;;;17.90;99.90;;;;;;5062798;28;20027;-90
2021/06/22 12:11:56;;;;;;;28.42;18.90;;;18.10;99.90;;;;;;5080899;28;20024;-89
2021/06/22 12:14:23;;;;;;;25.40;19.10;;;18.30;99.90;;;;;;5077362;28;20132;-87
2021/06/22 12:16:49;;;;;;;26.38;19.45;;;18.40;99.90;;;;;;5077191;28;20039;-84
2021/06/22 12:19:21;;;;;;;24.83;20.65;;;18.50;99.90;;;;;;5079290;28;20392;-83
2021/06/22 12:21:48;;;;;;;30.73;19.90;;;18.50;99.90;;;;;;5067931;28;20435;-84
2021/06/22 12:24:16;;;;;;;23.42;20.45;;;18.50;99.90;;;;;;5072911;28;20801;-86
2021/06/22 12:26:44;;;;;;;22.88;20.15;;;18.40;99.90;;;;;;5071749;28;20471;-90
2021/06/22 12:29:20;;;;;;;27.10;20.75;;;18.70;99.90;;;;;;5066631;28;20028;-88
2021/06/22 12:32:10;;;;;;;27.55;21.73;;;18.60;99.90;;;;;;5072321;28;20046;-87
2021/06/22 12:34:40;;;;;;;29.45;23.70;;;18.50;99.90;;;;;;5066916;28;20799;-89
2021/06/22 12:37:24;;;;;;;29.95;22.77;;;18.20;99.90;;;;;;5064769;28;20025;-90
2021/06/22 12:39:51;;;;;;;30.15;24.85;;;18.00;99.90;;;;;;5077181;28;20029;-91
2021/06/22 12:42:20;;;;;;;31.80;24.25;;;18.00;99.90;;;;;;5077944;28;20020;-91
2021/06/22 12:44:47;;;;;;;30.00;24.90;;;18.00;99.90;;;;;;5070709;28;20481;-90
2021/06/22 12:47:12;;;;;;;34.38;25.55;;;18.00;99.90;;;;;;5071843;28;20060;-90
2021/06/22 12:49:39;;;;;;;33.63;24.60;;;18.00;99.90;;;;;;5076556;28;20040;-89